map of PYE home
PYE - Airport
Location
City:  Penrhyn Island, Cook Islands
Near (Alt.):Tongareva, Te Pitaka, Hararanga
ICAO:NCPY
IATA:PYE

Details
Type:Airport (Aerodrome, Airfield)
Latitude:9°00'24"S (-9.006666)
Longitude:158°02'12"W (-158.036666)
Elevation:8 ft (2 m)
Variation:10.59°E (WMM2015 magnetic declination)
0.01° annual change
Runways:unknown number
Longest:7530 ft (2295 m)

Time
Time Zone:UTC-10
Local Time:

Weather
METAR:NCPY 141400Z AUTO 08012KT //// ////// 29/24 Q1011

Related Locations
Nearby:
Farthest:ODJ: 12393 mi / 19944 km
Ouanda-Djallé [Ouanda-Djallé Airport], VK, CF

Find:

   beyond  
but within

Other Information
Maps:
NOTAMs:
Links:
Sources:

  
  • flag of Cook Islands
  

Sectional Chart

Flight Planning
at skyvector.com

Satellite Image

Google Maps Satellite view

 

Copyright © 2004-2018 Karl L. Swartz. All rights reserved.
The Great Circle Mapper name and logo are trademarks of the Great Circle Mapper.
All other trademarks mentioned herein belong to their respective owners.
Please see credits for attibutions and further copyright information.

  Follow gcmap on Facebook Follow gcmap on Twitter Follow gcmap on Google+ GCmap on LinkedIn

hCard Microformat

Geo Microformat